Time;durP1;ratioP1;P1;durP2;ratioP2;P2;SDS_P1;SDS_P2;PMS_P1;PMS_P2;Temp;Humidity;BMP_temperature;BMP_pressure;BME280_temperature;BME280_humidity;BME280_pressure;Samples;Min_cycle;Max_cycle;Signal;HPM_P1;HPM_P2
2022/10/15 00:00:35;;;;;;;8.27;6.60;;;21.40;99.90;;;;;;5028141;28;20515;-58
2022/10/15 00:03:02;;;;;;;8.00;6.57;;;21.30;99.90;;;;;;5029612;28;20969;-56
2022/10/15 00:05:28;;;;;;;6.35;5.32;;;21.30;99.90;;;;;;5028261;28;20199;-57
2022/10/15 00:07:55;;;;;;;7.60;6.32;;;21.30;99.90;;;;;;5030123;28;20559;-58
2022/10/15 00:10:23;;;;;;;9.20;6.18;;;21.30;99.90;;;;;;5023663;28;20199;-57
2022/10/15 00:12:51;;;;;;;8.52;6.32;;;21.30;99.90;;;;;;5022303;28;20590;-53
2022/10/15 00:15:17;;;;;;;10.67;6.47;;;21.20;99.90;;;;;;5027198;28;20425;-59
2022/10/15 00:17:44;;;;;;;9.30;6.50;;;21.20;99.90;;;;;;5028462;28;20849;-58
2022/10/15 00:20:11;;;;;;;10.65;6.78;;;21.20;99.90;;;;;;5027955;28;20195;-52
2022/10/15 00:22:38;;;;;;;7.10;5.95;;;21.20;99.90;;;;;;5029012;28;20231;-55
2022/10/15 00:25:07;;;;;;;10.48;6.32;;;21.20;99.90;;;;;;5026007;28;20207;-58
2022/10/15 00:27:33;;;;;;;7.95;7.15;;;21.20;99.90;;;;;;5025855;28;20199;-58
2022/10/15 00:30:02;;;;;;;8.40;5.68;;;21.20;99.90;;;;;;5029957;28;20643;-55
2022/10/15 00:32:30;;;;;;;8.45;6.05;;;21.20;99.90;;;;;;5029264;28;20605;-56
2022/10/15 00:34:56;;;;;;;10.02;6.53;;;21.20;99.90;;;;;;5020272;28;20228;-57
2022/10/15 00:37:23;;;;;;;7.93;6.90;;;21.20;99.90;;;;;;5026218;28;20196;-58
2022/10/15 00:39:50;;;;;;;7.85;6.80;;;21.10;99.90;;;;;;5028334;28;20580;-51
2022/10/15 00:42:17;;;;;;;10.10;6.90;;;21.10;99.90;;;;;;5023337;28;20222;-58
2022/10/15 00:44:54;;;;;;;7.30;5.95;;;21.10;99.90;;;;;;5029443;28;20593;-50
2022/10/15 00:47:29;;;;;;;9.70;7.53;;;21.10;99.90;;;;;;5024676;28;20192;-58
2022/10/15 00:50:00;;;;;;;9.30;5.68;;;21.10;99.90;;;;;;5028351;28;20195;-58
2022/10/15 00:52:34;;;;;;;8.38;6.22;;;21.00;99.90;;;;;;5026775;28;20196;-57
2022/10/15 00:55:06;;;;;;;6.95;5.50;;;21.00;99.90;;;;;;5023523;28;20223;-49
2022/10/15 00:57:33;;;;;;;7.43;5.65;;;21.00;99.90;;;;;;5021201;28;20826;-52
2022/10/15 01:00:04;;;;;;;7.93;6.68;;;21.00;99.90;;;;;;5028920;28;20203;-60
2022/10/15 01:02:32;;;;;;;7.67;6.00;;;21.00;99.90;;;;;;5027704;28;20199;-53
2022/10/15 01:04:59;;;;;;;9.40;5.93;;;21.00;99.90;;;;;;5027863;28;20470;-55
2022/10/15 01:07:26;;;;;;;6.97;5.82;;;21.00;99.90;;;;;;5025896;28;20211;-59
2022/10/15 01:09:52;;;;;;;7.28;6.53;;;21.00;99.90;;;;;;5023663;28;20207;-60
2022/10/15 01:12:28;;;;;;;7.70;6.13;;;21.00;99.90;;;;;;5028486;28;20191;-59
2022/10/15 01:15:04;;;;;;;7.45;6.25;;;21.00;99.90;;;;;;5020468;28;20528;-57
2022/10/15 01:17:38;;;;;;;6.97;6.22;;;20.90;99.90;;;;;;5024030;28;20749;-59
2022/10/15 01:20:46;;;;;;;6.05;5.45;;;20.90;99.90;;;;;;5027082;28;20740;-59
2022/10/15 01:23:35;;;;;;;7.38;5.55;;;20.90;99.90;;;;;;5022554;28;20575;-50
2022/10/15 01:26:18;;;;;;;7.38;5.63;;;20.90;99.90;;;;;;5025487;28;20199;-59
2022/10/15 01:28:53;;;;;;;9.38;7.20;;;20.80;99.90;;;;;;5027141;28;20202;-59
2022/10/15 01:31:27;;;;;;;8.25;5.88;;;20.80;99.90;;;;;;5026804;28;20199;-58
2022/10/15 01:34:01;;;;;;;7.28;5.95;;;20.80;99.90;;;;;;5025107;28;20234;-57
2022/10/15 01:36:35;;;;;;;7.47;6.15;;;20.80;99.90;;;;;;5028025;28;20211;-52
2022/10/15 01:39:10;;;;;;;6.88;5.65;;;20.80;99.90;;;;;;5028015;28;20650;-60
2022/10/15 01:41:42;;;;;;;8.20;6.70;;;20.80;99.90;;;;;;5022716;28;20202;-52
2022/10/15 01:44:12;;;;;;;7.22;5.90;;;20.80;99.90;;;;;;5023001;28;20203;-52
2022/10/15 01:46:45;;;;;;;7.15;6.40;;;20.80;99.90;;;;;;5026499;28;20198;-51
2022/10/15 01:49:14;;;;;;;7.22;5.72;;;20.70;99.90;;;;;;5030934;28;20558;-55
2022/10/15 01:51:43;;;;;;;7.15;6.05;;;20.70;99.90;;;;;;5032549;28;20598;-58
2022/10/15 01:54:14;;;;;;;6.53;5.93;;;20.70;99.90;;;;;;5028867;28;20230;-59
2022/10/15 01:56:48;;;;;;;7.43;5.68;;;20.70;99.90;;;;;;5032124;28;20208;-58
2022/10/15 01:59:15;;;;;;;6.85;5.38;;;20.70;99.90;;;;;;5029139;28;20686;-59
2022/10/15 02:01:44;;;;;;;10.48;5.25;;;20.70;99.90;;;;;;5031822;28;20196;-59
2022/10/15 02:04:19;;;;;;;9.18;5.93;;;20.70;99.90;;;;;;5027383;28;20646;-60
2022/10/15 02:06:50;;;;;;;5.90;4.72;;;20.70;99.90;;;;;;5029863;28;20478;-56
2022/10/15 02:09:25;;;;;;;6.43;5.70;;;20.70;99.90;;;;;;5029251;28;20191;-49
2022/10/15 02:12:09;;;;;;;7.47;5.25;;;20.70;99.90;;;;;;5031813;28;20196;-57
2022/10/15 02:14:44;;;;;;;7.38;5.47;;;20.70;99.90;;;;;;5030953;28;20216;-54
2022/10/15 02:17:16;;;;;;;7.00;6.30;;;20.70;99.90;;;;;;5029334;28;20289;-51
2022/10/15 02:19:49;;;;;;;6.78;5.13;;;20.60;99.90;;;;;;5028147;28;20669;-59
2022/10/15 02:22:20;;;;;;;6.63;5.93;;;20.60;99.90;;;;;;5029385;28;20548;-53
2022/10/15 02:24:53;;;;;;;7.95;5.88;;;20.60;99.90;;;;;;5030680;28;20196;-59
2022/10/15 02:27:21;;;;;;;7.30;5.10;;;20.60;99.90;;;;;;5029609;28;20192;-55
2022/10/15 02:29:50;;;;;;;7.80;5.80;;;20.60;99.90;;;;;;5029469;28;20713;-56
2022/10/15 02:32:20;;;;;;;6.55;5.90;;;20.60;99.90;;;;;;5029350;28;20206;-60
2022/10/15 02:34:49;;;;;;;7.40;5.72;;;20.60;99.90;;;;;;5030030;28;20211;-55
2022/10/15 02:37:19;;;;;;;6.65;5.75;;;20.60;99.90;;;;;;5019193;28;20203;-59
2022/10/15 02:39:46;;;;;;;5.72;4.97;;;20.60;99.90;;;;;;5031192;28;20196;-55
2022/10/15 02:42:15;;;;;;;5.70;4.72;;;20.60;99.90;;;;;;5029817;28;20204;-58
2022/10/15 02:44:42;;;;;;;6.20;4.72;;;20.50;99.90;;;;;;5024171;28;20204;-52
2022/10/15 02:47:09;;;;;;;7.05;5.32;;;20.50;99.90;;;;;;5028210;28;20191;-52
2022/10/15 02:49:37;;;;;;;6.38;5.20;;;20.50;99.90;;;;;;5029537;28;20191;-58
2022/10/15 02:52:04;;;;;;;6.70;5.57;;;20.50;99.90;;;;;;5028152;28;20188;-59
2022/10/15 02:54:30;;;;;;;6.25;5.65;;;20.50;99.90;;;;;;5025617;28;20590;-54
2022/10/15 02:56:57;;;;;;;7.45;6.00;;;20.50;99.90;;;;;;5029504;28;20196;-59
2022/10/15 02:59:24;;;;;;;7.55;5.75;;;20.50;99.90;;;;;;5029004;28;20606;-59
2022/10/15 03:01:50;;;;;;;5.97;5.38;;;20.50;99.90;;;;;;5025764;28;20242;-47
2022/10/15 03:04:17;;;;;;;7.07;5.80;;;20.40;99.90;;;;;;5027795;28;20203;-58
2022/10/15 03:06:45;;;;;;;6.28;5.05;;;20.40;99.90;;;;;;5026561;28;20195;-59
2022/10/15 03:09:12;;;;;;;5.47;4.85;;;20.40;99.90;;;;;;5031479;28;20200;-58
2022/10/15 03:11:39;;;;;;;6.45;5.25;;;20.40;99.90;;;;;;5025056;28;20192;-56
2022/10/15 03:14:06;;;;;;;7.40;5.60;;;20.40;99.90;;;;;;5030915;28;20729;-58
2022/10/15 03:16:32;;;;;;;7.70;5.10;;;20.40;99.90;;;;;;5026440;28;20219;-52
2022/10/15 03:18:59;;;;;;;7.70;5.43;;;20.40;99.90;;;;;;5031623;28;20574;-59
2022/10/15 03:21:29;;;;;;;5.45;4.55;;;20.40;99.90;;;;;;5029307;28;20199;-47
2022/10/15 03:23:57;;;;;;;6.53;5.82;;;20.40;99.90;;;;;;5027609;28;20196;-58
2022/10/15 03:26:24;;;;;;;6.30;5.10;;;20.40;99.90;;;;;;5029892;28;20196;-58
2022/10/15 03:28:51;;;;;;;7.00;5.20;;;20.30;99.90;;;;;;5030925;28;20200;-55
2022/10/15 03:31:18;;;;;;;5.32;4.65;;;20.30;99.90;;;;;;5030938;28;20223;-57
2022/10/15 03:33:44;;;;;;;6.90;5.35;;;20.30;99.90;;;;;;5026804;28;20204;-58
2022/10/15 03:36:11;;;;;;;7.55;5.80;;;20.30;99.90;;;;;;5028918;28;20253;-40
2022/10/15 03:38:38;;;;;;;6.00;5.32;;;20.30;99.90;;;;;;5029461;28;20196;-58
2022/10/15 03:41:06;;;;;;;6.75;5.40;;;20.30;99.90;;;;;;5028711;28;20412;-58
2022/10/15 03:43:33;;;;;;;4.45;4.05;;;20.30;99.90;;;;;;5029106;28;20626;-60
2022/10/15 03:46:02;;;;;;;7.20;5.50;;;20.30;99.90;;;;;;5026789;28;20230;-57
2022/10/15 03:48:28;;;;;;;6.25;5.28;;;20.70;99.90;;;;;;5024594;28;20199;-59
2022/10/15 03:50:55;;;;;;;5.85;5.25;;;21.00;99.90;;;;;;5023207;28;20560;-55
2022/10/15 03:53:22;;;;;;;6.45;5.03;;;21.20;99.90;;;;;;5024336;28;20654;-58
2022/10/15 03:55:49;;;;;;;6.15;4.60;;;21.20;99.90;;;;;;5028911;28;20579;-50
2022/10/15 03:58:17;;;;;;;5.63;4.47;;;21.10;99.90;;;;;;5029627;28;20196;-58
2022/10/15 04:00:45;;;;;;;6.10;4.65;;;21.10;99.90;;;;;;5026316;28;20227;-57
2022/10/15 04:03:11;;;;;;;4.70;4.20;;;21.00;99.90;;;;;;5026172;28;20199;-47
2022/10/15 04:05:38;;;;;;;5.47;4.47;;;20.90;99.90;;;;;;5028866;28;20215;-59
2022/10/15 04:08:05;;;;;;;5.32;4.80;;;20.90;99.90;;;;;;5028797;28;20559;-58
2022/10/15 04:10:32;;;;;;;5.38;4.85;;;20.80;99.90;;;;;;5026070;28;20200;-57
2022/10/15 04:12:59;;;;;;;5.93;5.25;;;20.80;99.90;;;;;;5021873;28;20207;-58
2022/10/15 04:15:27;;;;;;;5.22;4.70;;;20.80;99.90;;;;;;5021034;28;20216;-51
2022/10/15 04:17:55;;;;;;;5.50;4.93;;;20.70;99.90;;;;;;5027624;28;20211;-51
2022/10/15 04:20:21;;;;;;;6.40;4.55;;;20.70;99.90;;;;;;5029362;28;20506;-55
2022/10/15 04:22:48;;;;;;;5.45;4.60;;;20.70;99.90;;;;;;5027844;28;20210;-57
2022/10/15 04:25:15;;;;;;;4.70;4.10;;;20.60;99.90;;;;;;5027751;28;20274;-59
2022/10/15 04:27:42;;;;;;;4.60;4.18;;;20.60;99.90;;;;;;5028235;28;20191;-49
2022/10/15 04:30:10;;;;;;;5.97;4.78;;;20.90;99.90;;;;;;5027240;28;20191;-56
2022/10/15 04:32:38;;;;;;;4.85;3.80;;;21.10;99.90;;;;;;5027867;28;20210;-58
2022/10/15 04:35:05;;;;;;;5.65;4.75;;;21.40;99.90;;;;;;5024303;28;20227;-59
2022/10/15 04:37:33;;;;;;;6.05;5.18;;;21.50;99.90;;;;;;5028844;28;20562;-51
2022/10/15 04:40:00;;;;;;;5.63;4.43;;;21.60;99.90;;;;;;5030735;28;20192;-49
2022/10/15 04:42:29;;;;;;;4.63;3.90;;;21.70;99.90;;;;;;5023200;28;20210;-57
2022/10/15 04:44:56;;;;;;;4.50;4.07;;;21.80;99.90;;;;;;5028028;28;20533;-59
2022/10/15 04:47:22;;;;;;;5.40;4.40;;;21.90;99.90;;;;;;5029661;28;20196;-54
2022/10/15 04:49:51;;;;;;;5.30;3.70;;;21.90;99.90;;;;;;5028824;28;20461;-59
2022/10/15 04:52:17;;;;;;;4.70;4.30;;;21.90;99.90;;;;;;5028095;28;20474;-44
2022/10/15 04:54:44;;;;;;;4.22;3.58;;;21.90;99.90;;;;;;5026596;28;20466;-59
2022/10/15 04:57:11;;;;;;;4.60;3.80;;;21.80;99.90;;;;;;5026471;28;20203;-50
2022/10/15 04:59:38;;;;;;;4.23;3.73;;;21.80;99.90;;;;;;5027506;28;20481;-59
2022/10/15 05:02:05;;;;;;;5.28;4.00;;;21.70;99.90;;;;;;5023783;28;20494;-58
2022/10/15 05:04:31;;;;;;;5.00;4.20;;;21.70;99.90;;;;;;5026398;28;20202;-58
2022/10/15 05:06:59;;;;;;;4.70;3.80;;;21.70;99.90;;;;;;5023385;28;20450;-60
2022/10/15 05:09:26;;;;;;;4.97;3.97;;;21.60;99.90;;;;;;5029636;28;20466;-59
2022/10/15 05:11:54;;;;;;;4.80;4.00;;;21.60;99.90;;;;;;5017913;28;20454;-54
2022/10/15 05:14:21;;;;;;;3.90;3.13;;;21.60;99.90;;;;;;5026057;28;20461;-58
2022/10/15 05:16:48;;;;;;;4.17;3.77;;;21.50;99.90;;;;;;5026951;28;20500;-63
2022/10/15 05:19:15;;;;;;;5.03;4.50;;;21.50;99.90;;;;;;5027253;28;20459;-52
2022/10/15 05:21:42;;;;;;;4.70;3.90;;;21.50;99.90;;;;;;5026847;28;20520;-60
2022/10/15 05:24:11;;;;;;;5.30;4.30;;;21.40;99.90;;;;;;5028903;28;20458;-56
2022/10/15 05:26:37;;;;;;;4.63;4.23;;;21.40;99.90;;;;;;5028953;28;20467;-57
2022/10/15 05:29:04;;;;;;;3.93;3.53;;;21.40;99.90;;;;;;5023588;28;20462;-60
2022/10/15 05:31:33;;;;;;;4.68;4.28;;;21.40;99.90;;;;;;5026865;28;20466;-48
2022/10/15 05:34:05;;;;;;;4.03;3.55;;;21.30;99.90;;;;;;5025076;28;20226;-59
2022/10/15 05:36:32;;;;;;;4.37;3.97;;;21.30;99.90;;;;;;5026982;28;20580;-59
2022/10/15 05:39:00;;;;;;;3.77;3.47;;;21.20;99.90;;;;;;5026039;28;20474;-59
2022/10/15 05:41:29;;;;;;;3.97;3.57;;;21.20;99.90;;;;;;5024891;28;20763;-60
2022/10/15 05:43:57;;;;;;;5.30;3.77;;;21.20;99.90;;;;;;5028957;28;20803;-58
2022/10/15 05:46:25;;;;;;;4.20;3.80;;;21.20;99.90;;;;;;5025856;28;20454;-57
2022/10/15 05:48:53;;;;;;;3.93;3.40;;;21.20;99.90;;;;;;5028300;28;20826;-56
2022/10/15 05:51:20;;;;;;;3.65;3.33;;;21.20;99.90;;;;;;5028634;28;20458;-57
2022/10/15 05:53:47;;;;;;;3.90;3.50;;;21.20;99.90;;;;;;5023871;28;20207;-45
2022/10/15 05:56:14;;;;;;;3.73;3.17;;;21.30;99.90;;;;;;5025756;28;20497;-51
2022/10/15 05:58:43;;;;;;;3.77;3.47;;;21.20;99.90;;;;;;5024252;28;20454;-55
2022/10/15 06:01:11;;;;;;;4.30;3.90;;;21.30;99.90;;;;;;5024737;28;20556;-51
2022/10/15 06:03:38;;;;;;;4.55;3.92;;;21.30;99.90;;;;;;5025701;28;20958;-53
2022/10/15 06:06:12;;;;;;;5.07;3.90;;;21.30;99.90;;;;;;5028311;28;21667;-60
2022/10/15 06:08:39;;;;;;;4.27;3.87;;;21.30;99.90;;;;;;5019696;28;20451;-61
2022/10/15 06:11:06;;;;;;;3.73;3.40;;;21.40;99.90;;;;;;5024073;28;20952;-55
2022/10/15 06:13:32;;;;;;;4.37;3.97;;;21.30;99.90;;;;;;5027990;28;20465;-60
2022/10/15 06:16:03;;;;;;;4.67;3.63;;;21.30;99.90;;;;;;5021972;28;20477;-56
2022/10/15 06:18:29;;;;;;;5.07;3.47;;;21.40;99.90;;;;;;5013050;28;20549;-60
2022/10/15 06:20:56;;;;;;;4.80;4.30;;;21.40;99.90;;;;;;5033482;28;20674;-54
2022/10/15 06:23:23;;;;;;;4.63;4.23;;;21.40;99.90;;;;;;5027156;28;20454;-60
2022/10/15 06:25:50;;;;;;;4.23;3.80;;;21.50;99.90;;;;;;5027957;28;20520;-60
2022/10/15 06:28:16;;;;;;;4.23;3.70;;;21.50;99.90;;;;;;5030237;28;20489;-59
2022/10/15 06:30:44;;;;;;;3.37;3.07;;;21.50;99.90;;;;;;5028310;28;20464;-59
2022/10/15 06:33:12;;;;;;;4.23;3.80;;;21.50;99.90;;;;;;5025852;28;20463;-58
2022/10/15 06:35:40;;;;;;;3.60;3.23;;;21.50;99.90;;;;;;5022692;28;20486;-59
2022/10/15 06:38:06;;;;;;;3.73;3.43;;;21.50;99.90;;;;;;5029749;28;20462;-58
2022/10/15 06:40:33;;;;;;;3.57;3.27;;;21.50;99.90;;;;;;5029558;28;20925;-59
2022/10/15 06:43:04;;;;;;;3.97;3.57;;;21.50;99.90;;;;;;5021848;28;20857;-58
2022/10/15 06:45:31;;;;;;;3.20;2.97;;;21.50;99.90;;;;;;5030921;28;20477;-60
2022/10/15 06:47:58;;;;;;;4.30;3.37;;;21.50;99.90;;;;;;5030838;28;20466;-52
2022/10/15 06:50:26;;;;;;;4.53;4.13;;;21.50;99.90;;;;;;5026040;28;20450;-55
2022/10/15 06:52:53;;;;;;;4.30;3.80;;;21.50;99.90;;;;;;5030646;28;20472;-59
2022/10/15 06:55:20;;;;;;;4.10;3.70;;;21.50;99.90;;;;;;5026453;28;20477;-59
2022/10/15 06:57:48;;;;;;;3.70;3.40;;;21.50;99.90;;;;;;5029848;28;20458;-53
2022/10/15 07:00:15;;;;;;;4.10;3.47;;;21.50;99.90;;;;;;5027087;28;20451;-57
2022/10/15 07:02:42;;;;;;;3.97;3.67;;;21.60;99.90;;;;;;5021416;28;20473;-59
2022/10/15 07:05:09;;;;;;;4.00;3.60;;;21.60;99.90;;;;;;5029196;28;20466;-58
2022/10/15 07:07:37;;;;;;;4.10;3.70;;;21.50;99.90;;;;;;5030577;28;20461;-60
2022/10/15 07:10:05;;;;;;;4.23;3.70;;;21.50;99.90;;;;;;5031275;28;20554;-52
2022/10/15 07:12:32;;;;;;;3.92;3.63;;;21.50;99.90;;;;;;5031487;28;20473;-59
2022/10/15 07:14:58;;;;;;;3.90;3.33;;;21.60;99.90;;;;;;5028608;28;20207;-59
2022/10/15 07:17:25;;;;;;;3.50;2.97;;;21.60;99.90;;;;;;5027959;28;20513;-54
2022/10/15 07:19:52;;;;;;;3.87;3.50;;;21.60;99.90;;;;;;5029410;28;20455;-58
2022/10/15 07:22:18;;;;;;;3.50;3.17;;;21.60;99.90;;;;;;5030242;28;20459;-58
2022/10/15 07:24:46;;;;;;;3.17;2.87;;;21.60;99.90;;;;;;5030546;28;20991;-50
2022/10/15 07:27:13;;;;;;;4.03;3.63;;;21.60;99.90;;;;;;5024497;28;20462;-50
2022/10/15 07:29:40;;;;;;;3.90;3.50;;;21.60;99.90;;;;;;5032516;28;20921;-51
2022/10/15 07:32:07;;;;;;;3.77;3.30;;;21.70;99.90;;;;;;5029117;28;20490;-54
2022/10/15 07:34:33;;;;;;;3.80;3.40;;;21.60;99.90;;;;;;5024876;28;20469;-51
2022/10/15 07:37:00;;;;;;;5.60;4.20;;;21.60;99.90;;;;;;5028255;28;20474;-53
2022/10/15 07:39:27;;;;;;;14.70;13.27;;;21.70;99.90;;;;;;5026075;28;20941;-41
2022/10/15 07:41:55;;;;;;;25.52;22.83;;;21.40;99.90;;;;;;5026275;28;20470;-40
2022/10/15 07:44:21;;;;;;;27.95;23.95;;;18.80;99.90;;;;;;5023683;28;20247;-39
2022/10/15 07:46:48;;;;;;;29.15;24.98;;;17.60;99.90;;;;;;5021273;28;20199;-40
2022/10/15 07:49:15;;;;;;;27.92;23.80;;;17.20;99.90;;;;;;5028568;28;20196;-40
2022/10/15 07:51:42;;;;;;;33.85;26.92;;;17.50;99.90;;;;;;5026341;28;20192;-40
2022/10/15 07:54:09;;;;;;;33.42;23.15;;;17.10;99.90;;;;;;5027822;28;20206;-40
2022/10/15 07:56:36;;;;;;;36.95;27.95;;;16.70;99.90;;;;;;5026207;28;20224;-39
2022/10/15 07:59:04;;;;;;;32.38;24.75;;;16.80;99.90;;;;;;5028917;28;20666;-39
2022/10/15 08:01:30;;;;;;;30.73;24.63;;;17.20;99.90;;;;;;5022789;28;20200;-41
2022/10/15 08:03:57;;;;;;;26.98;22.85;;;17.20;99.90;;;;;;5031155;28;20370;-42
2022/10/15 08:06:24;;;;;;;29.48;23.25;;;17.50;99.90;;;;;;5019169;28;20536;-42
2022/10/15 08:08:51;;;;;;;25.20;22.50;;;17.70;99.90;;;;;;5027798;28;20271;-43
2022/10/15 08:11:18;;;;;;;27.90;22.05;;;17.60;99.90;;;;;;5026875;28;20662;-43
2022/10/15 08:13:45;;;;;;;32.65;25.52;;;17.60;99.90;;;;;;5026710;28;20195;-43
2022/10/15 08:16:15;;;;;;;25.95;23.17;;;17.90;99.90;;;;;;5028241;28;20227;-41
2022/10/15 08:18:42;;;;;;;26.30;23.50;;;18.10;99.90;;;;;;5028619;28;20663;-42
2022/10/15 08:21:09;;;;;;;24.75;22.15;;;18.20;99.90;;;;;;5022444;28;20567;-42
2022/10/15 08:23:36;;;;;;;20.88;18.73;;;18.00;99.90;;;;;;5028245;28;20196;-41
2022/10/15 08:26:03;;;;;;;21.45;19.15;;;18.40;99.90;;;;;;5028005;28;20192;-42
2022/10/15 08:28:31;;;;;;;23.52;19.05;;;18.70;99.90;;;;;;5026299;28;20207;-42
2022/10/15 08:30:58;;;;;;;23.25;20.85;;;18.90;99.90;;;;;;5027973;28;20196;-41
2022/10/15 08:33:27;;;;;;;21.80;19.08;;;18.40;99.90;;;;;;5029468;28;20188;-42
2022/10/15 08:35:54;;;;;;;24.50;21.90;;;18.80;99.90;;;;;;5017145;28;20219;-43
2022/10/15 08:38:21;;;;;;;23.85;20.52;;;18.80;99.90;;;;;;5026150;28;20195;-42
2022/10/15 08:40:48;;;;;;;21.77;19.52;;;18.40;99.90;;;;;;5031648;28;20231;-42
2022/10/15 08:43:21;;;;;;;23.48;20.48;;;18.70;99.90;;;;;;5027450;28;20238;-43
2022/10/15 08:45:49;;;;;;;26.30;22.30;;;18.80;99.90;;;;;;5028593;28;20191;-42
2022/10/15 08:48:23;;;;;;;21.55;18.45;;;18.60;99.90;;;;;;5028598;28;20199;-42
2022/10/15 08:50:59;;;;;;;21.92;19.73;;;18.50;99.90;;;;;;5026648;28;20199;-42
2022/10/15 08:53:28;;;;;;;22.73;20.42;;;18.70;99.90;;;;;;5025345;28;20220;-40
2022/10/15 08:55:59;;;;;;;23.00;20.75;;;18.80;99.90;;;;;;5030922;28;20192;-43
2022/10/15 08:58:39;;;;;;;20.70;18.58;;;18.90;99.90;;;;;;5028878;28;20206;-41
2022/10/15 09:01:12;;;;;;;21.38;18.67;;;18.80;99.90;;;;;;5027596;28;20198;-42
2022/10/15 09:03:44;;;;;;;16.35;14.38;;;19.10;99.90;;;;;;5028865;28;20606;-41
2022/10/15 09:06:17;;;;;;;16.25;14.57;;;19.60;99.90;;;;;;5028542;28;20206;-40
2022/10/15 09:08:51;;;;;;;15.23;13.73;;;19.40;99.90;;;;;;5021541;28;20207;-42
2022/10/15 09:11:24;;;;;;;16.33;14.60;;;19.60;99.90;;;;;;5025759;28;20253;-42
2022/10/15 09:13:51;;;;;;;15.55;14.05;;;19.60;99.90;;;;;;5022956;28;20235;-42
2022/10/15 09:16:21;;;;;;;16.23;14.50;;;19.70;99.90;;;;;;5029625;28;20266;-42
2022/10/15 09:18:51;;;;;;;13.35;12.05;;;20.00;99.90;;;;;;5026506;28;20195;-42
2022/10/15 09:21:21;;;;;;;15.57;13.98;;;19.80;99.90;;;;;;5021488;28;20200;-42
2022/10/15 09:23:48;;;;;;;11.13;10.13;;;19.60;99.90;;;;;;5026131;28;20211;-50
2022/10/15 09:26:22;;;;;;;9.40;8.50;;;19.90;99.90;;;;;;5030880;28;20246;-48
2022/10/15 09:29:01;;;;;;;7.28;6.68;;;20.30;99.90;;;;;;5027354;28;20225;-46
2022/10/15 09:31:34;;;;;;;7.70;6.77;;;20.80;99.90;;;;;;5026956;28;20222;-46
2022/10/15 09:34:06;;;;;;;7.20;6.60;;;21.50;99.90;;;;;;5026547;28;20462;-49
2022/10/15 09:36:39;;;;;;;9.73;6.07;;;22.00;99.90;;;;;;5022190;28;20880;-50
2022/10/15 09:39:26;;;;;;;17.03;6.43;;;22.20;99.90;;;;;;5027313;28;20463;-50
2022/10/15 09:42:02;;;;;;;6.60;5.40;;;22.30;99.90;;;;;;5025220;28;20446;-50
2022/10/15 09:44:36;;;;;;;5.97;5.47;;;22.40;99.90;;;;;;5031065;28;20454;-47
2022/10/15 09:47:15;;;;;;;6.40;5.80;;;22.50;99.90;;;;;;5024217;28;20806;-47
2022/10/15 09:49:42;;;;;;;6.53;5.93;;;22.70;99.90;;;;;;5020205;28;20462;-50
2022/10/15 09:52:17;;;;;;;6.27;5.47;;;22.70;99.90;;;;;;5029956;28;20485;-48
2022/10/15 09:54:51;;;;;;;5.80;4.70;;;22.80;99.90;;;;;;5023025;28;21034;-47
2022/10/15 09:57:20;;;;;;;5.10;4.70;;;22.80;99.90;;;;;;5025940;28;20480;-48
2022/10/15 09:59:54;;;;;;;5.40;4.90;;;22.80;99.90;;;;;;5026487;28;20486;-48
2022/10/15 10:02:22;;;;;;;5.77;5.30;;;22.80;99.90;;;;;;5033071;28;20446;-53
2022/10/15 10:04:49;;;;;;;6.77;6.07;;;22.80;99.90;;;;;;5032912;28;20516;-51
2022/10/15 10:07:31;;;;;;;5.70;5.20;;;22.70;99.90;;;;;;5031224;28;20439;-48
2022/10/15 10:10:04;;;;;;;5.93;5.43;;;22.70;99.90;;;;;;5033158;28;20458;-51
2022/10/15 10:12:33;;;;;;;5.90;5.17;;;22.70;99.90;;;;;;5027274;28;20829;-50
2022/10/15 10:15:04;;;;;;;6.23;5.73;;;22.60;99.90;;;;;;5032552;28;20830;-47
2022/10/15 10:17:31;;;;;;;5.13;4.60;;;22.60;99.90;;;;;;5032751;28;20486;-48
2022/10/15 10:20:25;;;;;;;5.87;5.27;;;22.60;99.90;;;;;;5023687;28;20541;-48
2022/10/15 10:22:55;;;;;;;4.70;4.30;;;22.60;99.90;;;;;;5011032;28;20461;-53
2022/10/15 10:25:37;;;;;;;4.67;4.27;;;22.60;99.90;;;;;;5033548;28;20508;-52
2022/10/15 10:28:16;;;;;;;7.10;5.00;;;22.60;99.90;;;;;;5033761;28;20446;-48
2022/10/15 10:30:59;;;;;;;5.40;4.70;;;22.60;99.90;;;;;;5028299;28;20454;-51
2022/10/15 10:33:28;;;;;;;4.30;4.00;;;22.60;99.90;;;;;;5026816;28;20471;-49
2022/10/15 10:35:56;;;;;;;4.60;4.20;;;22.60;99.90;;;;;;5031978;28;20795;-51
2022/10/15 10:38:26;;;;;;;4.90;4.50;;;22.60;99.90;;;;;;5027756;28;20477;-44
2022/10/15 10:40:56;;;;;;;4.67;4.37;;;22.60;99.90;;;;;;5032420;28;20529;-51
2022/10/15 10:43:28;;;;;;;4.80;4.50;;;22.60;99.90;;;;;;5033857;28;20439;-52
2022/10/15 10:45:57;;;;;;;4.10;3.80;;;22.60;99.90;;;;;;5029621;28;20458;-53
2022/10/15 10:48:26;;;;;;;4.87;4.53;;;22.60;99.90;;;;;;5030701;28;20957;-50
2022/10/15 10:51:09;;;;;;;4.70;4.30;;;22.60;99.90;;;;;;5030169;28;20825;-51
2022/10/15 10:53:49;;;;;;;4.80;4.40;;;22.60;99.90;;;;;;5031143;28;20913;-53
2022/10/15 10:56:20;;;;;;;4.93;4.43;;;22.70;99.90;;;;;;5028828;28;20462;-53
2022/10/15 10:58:48;;;;;;;5.03;4.50;;;22.70;99.90;;;;;;5025111;28;20489;-49
2022/10/15 11:01:15;;;;;;;5.07;4.67;;;22.70;99.90;;;;;;5029970;28;20975;-53
2022/10/15 11:03:45;;;;;;;4.77;4.37;;;22.70;99.90;;;;;;5030296;28;20463;-53
2022/10/15 11:06:38;;;;;;;5.00;4.30;;;22.70;99.90;;;;;;5028842;28;20565;-50
2022/10/15 11:09:23;;;;;;;5.07;4.67;;;22.70;99.90;;;;;;5020935;28;20473;-45
2022/10/15 11:12:05;;;;;;;4.70;4.30;;;22.70;99.90;;;;;;5028077;28;20445;-53
2022/10/15 11:14:44;;;;;;;4.37;4.07;;;22.70;99.90;;;;;;5026637;28;20528;-53
2022/10/15 11:17:17;;;;;;;5.63;5.13;;;22.80;99.90;;;;;;5026254;28;20489;-50
2022/10/15 11:19:53;;;;;;;5.27;4.87;;;22.80;99.90;;;;;;5032518;28;20457;-54
2022/10/15 11:22:51;;;;;;;4.43;4.13;;;22.80;99.90;;;;;;5033614;28;20545;-54
2022/10/15 11:25:30;;;;;;;4.83;4.43;;;22.80;99.90;;;;;;5023360;28;20469;-54
2022/10/15 11:28:08;;;;;;;4.33;4.00;;;22.80;99.90;;;;;;5017059;28;20930;-50
2022/10/15 11:30:48;;;;;;;5.00;4.63;;;22.80;99.90;;;;;;5025903;28;20457;-51
2022/10/15 11:33:27;;;;;;;4.47;4.13;;;22.90;99.90;;;;;;5027103;28;20458;-54
2022/10/15 11:36:02;;;;;;;4.50;4.20;;;22.90;99.90;;;;;;5024697;28;20841;-52
2022/10/15 11:38:42;;;;;;;4.97;4.47;;;22.90;99.90;;;;;;5020429;28;20488;-49
2022/10/15 11:41:26;;;;;;;4.20;3.90;;;22.90;99.90;;;;;;5019398;28;20469;-54
2022/10/15 11:44:04;;;;;;;4.57;4.10;;;23.00;99.90;;;;;;5026298;28;20462;-51
2022/10/15 11:46:38;;;;;;;5.97;4.53;;;23.00;99.90;;;;;;5024179;28;20466;-48
2022/10/15 11:49:19;;;;;;;5.60;3.97;;;23.10;99.90;;;;;;5027741;28;20462;-50
2022/10/15 11:52:07;;;;;;;4.30;3.90;;;23.10;99.90;;;;;;5028039;28;20446;-47
2022/10/15 11:54:40;;;;;;;4.43;3.80;;;23.10;99.90;;;;;;5022172;28;20542;-47
2022/10/15 11:57:12;;;;;;;9.80;4.43;;;23.10;99.90;;;;;;5026036;28;20541;-50
2022/10/15 11:59:47;;;;;;;4.33;3.70;;;23.20;99.90;;;;;;5029197;28;20454;-49
2022/10/15 12:02:18;;;;;;;4.60;3.50;;;23.20;99.90;;;;;;5020624;28;20971;-47
2022/10/15 12:04:49;;;;;;;4.80;4.40;;;23.20;99.90;;;;;;5017271;28;20462;-50
2022/10/15 12:07:22;;;;;;;3.87;3.47;;;23.20;99.90;;;;;;5020931;28;20459;-47
2022/10/15 12:09:54;;;;;;;4.23;3.60;;;23.30;99.90;;;;;;5022694;28;20450;-50
2022/10/15 12:12:33;;;;;;;3.60;3.40;;;23.30;99.90;;;;;;5025642;28;20497;-51
2022/10/15 12:15:15;;;;;;;3.80;3.40;;;23.30;99.90;;;;;;5029616;28;20463;-45
2022/10/15 12:17:48;;;;;;;3.77;3.47;;;23.30;99.90;;;;;;5019980;28;20480;-47
2022/10/15 12:20:17;;;;;;;3.63;3.30;;;23.30;99.90;;;;;;5027319;28;20540;-45
2022/10/15 12:22:55;;;;;;;4.00;3.60;;;23.40;99.90;;;;;;5025993;28;20463;-46
2022/10/15 12:25:46;;;;;;;3.80;3.50;;;23.40;99.90;;;;;;5029569;28;20450;-48
2022/10/15 12:28:17;;;;;;;4.53;4.13;;;23.30;99.90;;;;;;5024260;28;20447;-51
2022/10/15 12:30:55;;;;;;;3.83;3.53;;;23.30;99.90;;;;;;5024345;28;20454;-46
2022/10/15 12:33:29;;;;;;;4.73;4.03;;;23.30;99.90;;;;;;5022358;28;20889;-53
2022/10/15 12:35:57;;;;;;;4.70;4.40;;;23.30;99.90;;;;;;5025983;28;20807;-47
2022/10/15 12:38:30;;;;;;;3.47;3.17;;;23.30;99.90;;;;;;5029708;28;20478;-49
2022/10/15 12:41:08;;;;;;;5.03;3.87;;;23.30;99.90;;;;;;5030220;28;20466;-51
2022/10/15 12:43:40;;;;;;;4.90;4.50;;;23.30;99.90;;;;;;5021168;28;20436;-54
2022/10/15 12:46:09;;;;;;;3.90;3.60;;;23.30;99.90;;;;;;5028433;28;20458;-54
2022/10/15 12:48:39;;;;;;;3.93;3.63;;;23.30;99.90;;;;;;5026613;28;20509;-54
2022/10/15 12:51:30;;;;;;;4.40;4.00;;;23.30;99.90;;;;;;5029008;28;20458;-52
2022/10/15 12:53:59;;;;;;;3.30;3.00;;;23.30;99.90;;;;;;5009311;28;20455;-54
2022/10/15 12:56:38;;;;;;;4.37;4.00;;;23.30;99.90;;;;;;5026669;28;20469;-48
2022/10/15 12:59:30;;;;;;;3.53;3.33;;;23.30;99.90;;;;;;5025200;28;20479;-50